Time;durP1;ratioP1;P1;durP2;ratioP2;P2;SDS_P1;SDS_P2;PMS_P1;PMS_P2;Temp;Humidity;BMP_temperature;BMP_pressure;BME280_temperature;BME280_humidity;BME280_pressure;Samples;Min_cycle;Max_cycle;Signal;HPM_P1;HPM_P2
2021/09/03 00:00:23;;;;;;;36.90;19.23;;;10.60;99.90;;;;;;4384184;28;659040;-70
2021/09/03 00:03:11;;;;;;;36.13;19.00;;;10.60;99.90;;;;;;4391817;28;658993;-70
2021/09/03 00:05:59;;;;;;;40.47;18.80;;;10.60;99.90;;;;;;4372644;28;658793;-70
2021/09/03 00:08:46;;;;;;;38.67;19.97;;;10.60;99.90;;;;;;4391551;28;658462;-69
2021/09/03 00:11:35;;;;;;;38.37;20.63;;;10.50;99.90;;;;;;4374175;28;659171;-69
2021/09/03 00:14:23;;;;;;;39.07;20.07;;;10.60;99.90;;;;;;4374159;28;658523;-69
2021/09/03 00:17:10;;;;;;;42.73;21.97;;;10.60;99.90;;;;;;4392882;28;659453;-69
2021/09/03 00:19:58;;;;;;;42.20;21.80;;;10.60;99.90;;;;;;4373636;28;659271;-69
2021/09/03 00:22:46;;;;;;;37.63;20.65;;;10.60;99.90;;;;;;4392428;28;659746;-69
2021/09/03 00:25:33;;;;;;;37.27;20.13;;;10.60;99.90;;;;;;4374873;28;658474;-69
2021/09/03 00:28:22;;;;;;;43.63;22.07;;;10.60;99.90;;;;;;4393809;28;660086;-69
2021/09/03 00:31:09;;;;;;;38.77;21.10;;;10.60;99.90;;;;;;4369630;28;659185;-69
2021/09/03 00:33:57;;;;;;;49.10;21.57;;;10.70;99.90;;;;;;4382316;28;658552;-69
2021/09/03 00:36:45;;;;;;;41.13;21.67;;;10.70;99.90;;;;;;4392210;28;659792;-69
2021/09/03 00:39:32;;;;;;;46.80;25.33;;;10.80;99.90;;;;;;4373715;28;658497;-69
2021/09/03 00:42:20;;;;;;;47.23;23.07;;;11.00;99.90;;;;;;4392948;28;659452;-69
2021/09/03 00:45:10;;;;;;;49.53;25.70;;;11.10;99.90;;;;;;4373293;28;658852;-69
2021/09/03 00:47:58;;;;;;;46.10;23.37;;;11.20;99.90;;;;;;4373620;28;658871;-69
2021/09/03 00:50:45;;;;;;;59.17;32.13;;;11.40;99.90;;;;;;4392049;28;659442;-69
2021/09/03 00:53:33;;;;;;;63.13;31.43;;;11.60;99.90;;;;;;4373484;28;658808;-69
2021/09/03 00:56:20;;;;;;;53.80;28.50;;;11.70;99.90;;;;;;4391837;28;659313;-69
2021/09/03 00:59:08;;;;;;;58.77;29.70;;;11.80;99.90;;;;;;4373315;28;658450;-69
2021/09/03 01:01:57;;;;;;;70.35;34.33;;;11.80;99.90;;;;;;4392036;28;659125;-69
2021/09/03 01:04:44;;;;;;;73.67;36.53;;;11.80;99.90;;;;;;4373979;28;658616;-69
2021/09/03 01:07:32;;;;;;;79.17;42.33;;;11.90;99.90;;;;;;4388059;28;658753;-69
2021/09/03 01:10:20;;;;;;;73.27;38.43;;;12.00;99.90;;;;;;4392287;28;659708;-69
2021/09/03 01:13:08;;;;;;;75.97;39.17;;;12.00;99.90;;;;;;4372968;28;658944;-69
2021/09/03 01:15:55;;;;;;;65.70;33.73;;;12.00;99.90;;;;;;4392276;28;659055;-69
2021/09/03 01:18:44;;;;;;;58.33;32.23;;;12.00;99.90;;;;;;4373348;28;659420;-69
2021/09/03 01:21:32;;;;;;;56.90;29.53;;;12.00;99.90;;;;;;4390871;28;658527;-69
2021/09/03 01:24:21;;;;;;;57.47;30.23;;;12.00;99.90;;;;;;4391661;28;659271;-69
2021/09/03 01:27:09;;;;;;;49.57;26.87;;;12.00;99.90;;;;;;4373816;28;659387;-69
2021/09/03 01:29:56;;;;;;;53.90;28.10;;;12.00;99.90;;;;;;4391253;28;658521;-69
2021/09/03 01:32:44;;;;;;;56.60;29.33;;;12.00;99.90;;;;;;4373408;28;659802;-69
2021/09/03 01:35:32;;;;;;;62.27;35.27;;;12.00;99.90;;;;;;4392028;28;658896;-69
2021/09/03 01:38:19;;;;;;;66.50;35.93;;;11.90;99.90;;;;;;4369200;28;659403;-69
2021/09/03 01:41:08;;;;;;;61.30;36.80;;;12.00;99.90;;;;;;4392076;28;659152;-70
2021/09/03 01:43:55;;;;;;;64.07;36.97;;;12.00;99.90;;;;;;4369249;28;659450;-69
2021/09/03 01:46:43;;;;;;;61.63;34.37;;;12.00;99.90;;;;;;4372083;28;658661;-69
2021/09/03 01:49:31;;;;;;;53.43;30.50;;;11.90;99.90;;;;;;4390862;28;658520;-69
2021/09/03 01:52:18;;;;;;;55.70;28.47;;;11.90;99.90;;;;;;4369785;28;658395;-69
2021/09/03 01:55:07;;;;;;;49.63;28.00;;;11.90;99.90;;;;;;4391188;28;658925;-69
2021/09/03 01:57:58;;;;;;;55.23;28.50;;;11.90;99.90;;;;;;4368847;28;659603;-69
2021/09/03 02:00:45;;;;;;;51.75;27.42;;;11.90;99.90;;;;;;4368683;28;658836;-70
2021/09/03 02:03:33;;;;;;;50.27;25.87;;;11.90;99.90;;;;;;4372987;28;658668;-70
2021/09/03 02:06:20;;;;;;;48.93;26.13;;;11.90;99.90;;;;;;4391061;28;659227;-70
2021/09/03 02:09:08;;;;;;;50.43;25.67;;;11.90;99.90;;;;;;4372283;28;658808;-69
2021/09/03 02:11:55;;;;;;;52.77;25.87;;;11.80;99.90;;;;;;4391524;28;659095;-69
2021/09/03 02:14:44;;;;;;;45.83;25.90;;;11.80;99.90;;;;;;4372402;28;659061;-69
2021/09/03 02:17:32;;;;;;;44.30;26.37;;;11.70;99.90;;;;;;4389818;28;658795;-69
2021/09/03 02:20:20;;;;;;;49.47;25.87;;;11.70;99.90;;;;;;4391210;28;660461;-69
2021/09/03 02:23:07;;;;;;;47.87;24.20;;;11.70;99.90;;;;;;4373013;28;658787;-69
2021/09/03 02:25:55;;;;;;;43.30;23.20;;;11.60;99.90;;;;;;4390845;28;659625;-69
2021/09/03 02:28:42;;;;;;;39.57;19.90;;;11.50;99.90;;;;;;4372664;28;658668;-69
2021/09/03 02:31:31;;;;;;;42.33;22.63;;;11.50;99.90;;;;;;4390368;28;660267;-69
2021/09/03 02:34:19;;;;;;;42.27;20.77;;;11.50;99.90;;;;;;4373374;28;658714;-69
2021/09/03 02:37:06;;;;;;;42.40;20.23;;;11.50;99.90;;;;;;4390788;28;658650;-69
2021/09/03 02:39:54;;;;;;;35.47;18.70;;;11.40;99.90;;;;;;4372825;28;659784;-70
2021/09/03 02:42:41;;;;;;;39.67;19.10;;;11.40;99.90;;;;;;4393413;28;658786;-69
2021/09/03 02:45:29;;;;;;;37.10;19.20;;;11.40;99.90;;;;;;4371621;28;659235;-69
2021/09/03 02:48:18;;;;;;;31.63;17.00;;;11.40;99.90;;;;;;4393929;28;658961;-69
2021/09/03 02:51:05;;;;;;;36.03;17.83;;;11.40;99.90;;;;;;4371141;28;659753;-69
2021/09/03 02:53:53;;;;;;;36.43;18.50;;;11.40;99.90;;;;;;4374554;28;659050;-69
2021/09/03 02:56:40;;;;;;;34.03;16.30;;;11.30;99.90;;;;;;4393678;28;658814;-69
2021/09/03 02:59:28;;;;;;;38.43;17.23;;;11.30;99.90;;;;;;4375017;28;658337;-69
2021/09/03 03:02:15;;;;;;;33.00;16.50;;;11.30;99.90;;;;;;4393539;28;658808;-69
2021/09/03 03:05:05;;;;;;;35.00;16.27;;;11.30;99.90;;;;;;4374852;28;658445;-69
2021/09/03 03:07:52;;;;;;;32.50;15.77;;;11.30;99.90;;;;;;4375117;28;658635;-69
2021/09/03 03:10:40;;;;;;;39.17;16.43;;;11.20;99.90;;;;;;4397112;28;659447;-69
2021/09/03 03:13:29;;;;;;;30.57;16.10;;;11.30;99.90;;;;;;4374797;28;658843;-69
2021/09/03 03:16:17;;;;;;;34.77;16.57;;;11.30;99.90;;;;;;4392361;28;658441;-69
2021/09/03 03:19:05;;;;;;;33.90;15.70;;;11.30;99.90;;;;;;4392950;28;659732;-70
2021/09/03 03:21:54;;;;;;;32.23;15.80;;;11.30;99.90;;;;;;4375052;28;658818;-69
2021/09/03 03:24:41;;;;;;;36.90;16.77;;;11.40;99.90;;;;;;4393806;28;658579;-69
2021/09/03 03:27:29;;;;;;;36.33;15.90;;;11.40;99.90;;;;;;4370514;28;659126;-70
2021/09/03 03:30:17;;;;;;;32.63;15.83;;;11.40;99.90;;;;;;4392949;28;658811;-70
2021/09/03 03:33:05;;;;;;;32.73;15.80;;;11.40;99.90;;;;;;4369677;28;659693;-69
2021/09/03 03:35:52;;;;;;;36.90;16.33;;;11.40;99.90;;;;;;4374417;28;659486;-69
2021/09/03 03:38:41;;;;;;;36.13;15.43;;;11.40;99.90;;;;;;4393635;28;659189;-70
2021/09/03 03:41:29;;;;;;;35.57;15.93;;;11.40;99.90;;;;;;4370382;28;660033;-69
2021/09/03 03:44:16;;;;;;;35.42;15.45;;;11.40;99.90;;;;;;4392798;28;659060;-69
2021/09/03 03:47:04;;;;;;;35.30;15.43;;;11.40;99.90;;;;;;4363227;28;659553;-69
2021/09/03 03:49:52;;;;;;;34.43;15.63;;;11.40;99.90;;;;;;4392204;28;658680;-69
2021/09/03 03:52:40;;;;;;;38.63;15.97;;;11.40;99.90;;;;;;4392663;28;659177;-70
2021/09/03 03:55:29;;;;;;;32.03;16.15;;;11.40;99.90;;;;;;4374305;28;659103;-69
2021/09/03 03:58:17;;;;;;;35.13;17.10;;;11.50;99.90;;;;;;4392538;28;658703;-70
2021/09/03 04:01:04;;;;;;;36.17;16.50;;;11.50;99.90;;;;;;4374114;28;659611;-69
2021/09/03 04:03:52;;;;;;;39.43;16.07;;;11.50;99.90;;;;;;4386586;28;659107;-70
2021/09/03 04:07:23;;;;;;;37.53;16.83;;;11.50;99.90;;;;;;4392375;28;659831;-70
2021/09/03 04:10:34;;;;;;;32.57;15.07;;;11.50;99.90;;;;;;4364344;28;658572;-69
2021/09/03 04:13:22;;;;;;;36.50;16.33;;;11.50;99.90;;;;;;4390317;28;658756;-69
2021/09/03 04:16:10;;;;;;;36.80;15.83;;;11.50;99.90;;;;;;4392990;28;659631;-69
2021/09/03 04:18:57;;;;;;;29.80;15.27;;;11.50;99.90;;;;;;4374384;28;658562;-69
2021/09/03 04:21:45;;;;;;;38.07;16.33;;;11.50;99.90;;;;;;4392972;28;660121;-69
2021/09/03 04:24:33;;;;;;;34.73;16.90;;;11.50;99.90;;;;;;4373584;28;658661;-69
2021/09/03 04:27:21;;;;;;;35.73;16.73;;;11.60;99.90;;;;;;4392200;28;659349;-70
2021/09/03 04:30:10;;;;;;;38.77;16.10;;;11.60;99.90;;;;;;4369671;28;659507;-70
2021/09/03 04:32:58;;;;;;;35.87;16.77;;;11.70;99.90;;;;;;4373529;28;658784;-69
2021/09/03 04:35:45;;;;;;;39.63;18.63;;;11.60;99.90;;;;;;4392584;28;659552;-69
2021/09/03 04:38:33;;;;;;;37.20;17.20;;;11.60;99.90;;;;;;4373807;28;659114;-69
2021/09/03 04:41:21;;;;;;;39.87;17.60;;;11.70;99.90;;;;;;4392526;28;659517;-70
2021/09/03 04:44:09;;;;;;;34.30;16.97;;;11.80;99.90;;;;;;4372638;28;658924;-69
2021/09/03 04:46:57;;;;;;;35.10;17.07;;;11.80;99.90;;;;;;4383321;28;659057;-69
2021/09/03 04:49:45;;;;;;;40.43;16.33;;;11.80;99.90;;;;;;4392225;28;659699;-69
2021/09/03 04:52:32;;;;;;;37.97;16.33;;;11.90;99.90;;;;;;4373884;28;658801;-69
2021/09/03 04:55:20;;;;;;;37.57;17.27;;;12.00;99.90;;;;;;4392011;28;659468;-69
2021/09/03 04:58:07;;;;;;;40.53;16.20;;;12.00;99.90;;;;;;4373079;28;659048;-69
2021/09/03 05:00:56;;;;;;;30.73;15.17;;;12.10;99.90;;;;;;4396185;28;660088;-69
2021/09/03 05:03:44;;;;;;;33.10;15.30;;;12.20;99.90;;;;;;4368259;28;659233;-69
2021/09/03 05:06:31;;;;;;;39.60;16.20;;;12.30;99.90;;;;;;4391880;28;658530;-69
2021/09/03 05:09:19;;;;;;;34.43;15.10;;;12.30;99.90;;;;;;4369273;28;659471;-69
2021/09/03 05:12:07;;;;;;;36.97;15.07;;;12.40;99.90;;;;;;4392236;28;659098;-69
2021/09/03 05:14:55;;;;;;;33.47;14.90;;;12.50;99.90;;;;;;4369294;28;659424;-69
2021/09/03 05:17:48;;;;;;;32.67;15.17;;;12.50;99.90;;;;;;4377701;28;658815;-69
2021/09/03 05:20:35;;;;;;;34.40;14.60;;;12.50;99.90;;;;;;4369338;28;659392;-69
2021/09/03 05:23:23;;;;;;;31.30;14.33;;;12.60;99.90;;;;;;4373218;28;658782;-69
2021/09/03 05:26:10;;;;;;;38.93;15.53;;;12.60;99.90;;;;;;4395956;28;659205;-70
2021/09/03 05:29:01;;;;;;;28.70;13.67;;;12.60;99.90;;;;;;4372959;28;658643;-69
2021/09/03 05:31:49;;;;;;;30.43;14.27;;;12.70;99.90;;;;;;4369467;28;658565;-69
2021/09/03 05:34:37;;;;;;;28.73;13.77;;;12.80;99.90;;;;;;4390509;28;658411;-69
2021/09/03 05:37:26;;;;;;;29.57;14.07;;;12.90;99.90;;;;;;4368925;28;659145;-69
2021/09/03 05:40:14;;;;;;;27.70;13.93;;;13.00;99.90;;;;;;4373076;28;659051;-69
2021/09/03 05:43:02;;;;;;;26.30;13.77;;;13.20;99.90;;;;;;4391876;28;658481;-69
2021/09/03 05:45:49;;;;;;;29.50;13.67;;;13.40;99.90;;;;;;4373121;28;659144;-69
2021/09/03 05:48:37;;;;;;;29.23;13.20;;;13.40;99.90;;;;;;4382123;28;658513;-69
2021/09/03 05:51:26;;;;;;;26.60;12.40;;;13.50;99.90;;;;;;4391480;28;660607;-69
2021/09/03 05:54:14;;;;;;;24.80;12.53;;;13.50;99.90;;;;;;4372830;28;659772;-69
2021/09/03 05:57:03;;;;;;;23.43;11.57;;;13.60;99.90;;;;;;4391301;28;659087;-69
2021/09/03 05:59:50;;;;;;;27.70;13.63;;;13.60;99.90;;;;;;4368976;28;660014;-69
2021/09/03 06:02:38;;;;;;;26.17;13.57;;;13.60;99.90;;;;;;4372352;28;659154;-69
2021/09/03 06:05:25;;;;;;;30.33;13.17;;;13.60;99.90;;;;;;4391100;28;659327;-69
2021/09/03 06:08:14;;;;;;;23.33;12.67;;;13.70;99.90;;;;;;4372979;28;658354;-69
2021/09/03 06:11:02;;;;;;;22.27;12.13;;;13.90;99.90;;;;;;4380534;28;658823;-69
2021/09/03 06:13:50;;;;;;;23.90;12.13;;;14.00;99.90;;;;;;4391497;28;658882;-69
2021/09/03 06:16:37;;;;;;;23.85;12.05;;;14.10;99.90;;;;;;4375327;28;658933;-69
2021/09/03 06:19:25;;;;;;;24.00;11.77;;;14.20;99.90;;;;;;4397929;28;659335;-69
2021/09/03 06:22:12;;;;;;;23.27;11.77;;;14.20;99.90;;;;;;4375884;28;658822;-69
2021/09/03 06:25:01;;;;;;;22.17;11.40;;;14.20;99.90;;;;;;4399096;28;659520;-69
2021/09/03 06:27:49;;;;;;;21.90;11.83;;;14.30;99.90;;;;;;4371622;28;659806;-69
2021/09/03 06:30:37;;;;;;;21.70;10.90;;;14.30;99.90;;;;;;4394597;28;659361;-69
2021/09/03 06:33:24;;;;;;;21.73;11.37;;;14.10;99.90;;;;;;4375411;28;659674;-69
2021/09/03 06:36:12;;;;;;;23.17;11.57;;;14.10;99.90;;;;;;4389702;28;658848;-69
2021/09/03 06:39:00;;;;;;;25.40;11.73;;;14.10;99.90;;;;;;4394031;28;659342;-69
2021/09/03 06:41:49;;;;;;;23.83;12.50;;;14.10;99.90;;;;;;4374858;28;658694;-69
2021/09/03 06:44:37;;;;;;;29.47;12.60;;;14.10;99.90;;;;;;4393705;28;658980;-69
2021/09/03 06:47:24;;;;;;;27.50;12.97;;;14.10;99.90;;;;;;4372007;28;659587;-69
2021/09/03 06:50:13;;;;;;;30.13;14.07;;;14.20;99.90;;;;;;4374573;28;658947;-68
2021/09/03 06:53:00;;;;;;;25.47;12.67;;;14.10;99.90;;;;;;4397049;27;659379;-69
2021/09/03 06:55:48;;;;;;;23.50;12.33;;;14.10;99.90;;;;;;4375433;28;659369;-69
2021/09/03 06:58:37;;;;;;;21.60;11.13;;;14.10;99.90;;;;;;4393292;28;659087;-69
2021/09/03 07:01:24;;;;;;;25.50;11.43;;;14.10;99.90;;;;;;4370889;28;659435;-69
2021/09/03 07:04:12;;;;;;;25.57;11.70;;;14.10;99.90;;;;;;4393360;28;658782;-69
2021/09/03 07:06:59;;;;;;;22.23;11.53;;;14.20;99.90;;;;;;4375203;28;659892;-69
2021/09/03 07:09:47;;;;;;;21.63;11.90;;;14.40;99.90;;;;;;4392184;28;658620;-69
2021/09/03 07:12:35;;;;;;;20.67;11.90;;;14.60;99.90;;;;;;4397428;28;658473;-69
2021/09/03 07:15:24;;;;;;;32.60;12.53;;;14.70;99.90;;;;;;4375448;28;658396;-69
2021/09/03 07:18:12;;;;;;;20.77;11.37;;;14.90;99.90;;;;;;4388431;28;659038;-69
2021/09/03 07:20:59;;;;;;;22.50;10.63;;;15.00;99.90;;;;;;4374753;28;659430;-69
2021/09/03 07:23:47;;;;;;;22.40;11.80;;;15.10;99.90;;;;;;4390623;28;658379;-69
2021/09/03 07:26:35;;;;;;;23.03;10.97;;;15.10;99.90;;;;;;4392694;28;659842;-69
2021/09/03 07:29:23;;;;;;;19.13;9.93;;;15.30;99.90;;;;;;4374559;28;659020;-69
2021/09/03 07:32:12;;;;;;;17.07;9.07;;;15.60;99.90;;;;;;4397727;28;659223;-69
2021/09/03 07:34:59;;;;;;;19.97;10.17;;;15.80;99.90;;;;;;4371542;28;658705;-69
2021/09/03 07:37:47;;;;;;;17.33;9.27;;;15.90;99.90;;;;;;4391752;28;659348;-69
2021/09/03 07:40:35;;;;;;;17.77;8.60;;;16.10;99.90;;;;;;4398917;28;657955;-69
2021/09/03 07:43:23;;;;;;;16.70;7.73;;;16.30;99.90;;;;;;4375564;28;657695;-69
2021/09/03 07:46:10;;;;;;;20.23;9.00;;;16.30;88.90;;;;;;4394667;28;658506;-69
2021/09/03 07:48:59;;;;;;;14.37;7.43;;;16.30;93.20;;;;;;4375278;28;657564;-69
2021/09/03 07:51:47;;;;;;;16.27;8.67;;;16.40;77.50;;;;;;4386134;28;657402;-68
2021/09/03 07:54:35;;;;;;;16.60;8.60;;;16.50;62.50;;;;;;4394725;28;658367;-68
2021/09/03 07:57:22;;;;;;;13.00;7.03;;;16.60;67.90;;;;;;4374880;28;657514;-68
2021/09/03 08:00:11;;;;;;;15.87;8.00;;;16.80;62.00;;;;;;4399159;28;658616;-69
2021/09/03 08:02:58;;;;;;;16.73;8.53;;;17.00;61.60;;;;;;4374102;28;657583;-68
2021/09/03 08:05:47;;;;;;;15.37;7.87;;;17.30;56.60;;;;;;4394474;28;658083;-69
2021/09/03 08:08:35;;;;;;;16.87;8.20;;;17.50;35.80;;;;;;4371226;28;658393;-69
2021/09/03 08:11:22;;;;;;;16.93;8.43;;;17.60;12.40;;;;;;4378588;28;657931;-69
2021/09/03 08:14:10;;;;;;;14.93;8.67;;;17.60;1.00;;;;;;4398540;28;658697;-69
2021/09/03 08:16:58;;;;;;;16.80;7.60;;;17.70;1.00;;;;;;4376195;28;656778;-69
2021/09/03 08:19:45;;;;;;;19.30;7.90;;;17.80;1.00;;;;;;4395187;28;657850;-69
2021/09/03 08:22:34;;;;;;;16.80;7.53;;;17.90;1.00;;;;;;4376049;28;656559;-69
2021/09/03 08:25:23;;;;;;;14.80;7.40;;;17.90;1.00;;;;;;4385862;28;656771;-69
2021/09/03 08:28:11;;;;;;;18.57;7.13;;;18.20;1.00;;;;;;4395136;28;656909;-68
2021/09/03 08:30:58;;;;;;;17.10;8.03;;;18.30;1.00;;;;;;4376675;28;656395;-69
2021/09/03 08:33:46;;;;;;;14.37;7.07;;;18.40;1.00;;;;;;4395279;28;658013;-68
2021/09/03 08:36:33;;;;;;;12.30;6.67;;;18.80;1.00;;;;;;4376336;28;656852;-68
2021/09/03 08:39:22;;;;;;;13.17;6.80;;;18.70;99.90;;;;;;4394304;28;656742;-68
2021/09/03 08:42:10;;;;;;;14.37;6.87;;;18.70;1.00;;;;;;4370824;28;658177;-69
2021/09/03 08:44:59;;;;;;;10.50;6.30;;;18.90;99.90;;;;;;4376662;28;657069;-69
2021/09/03 08:47:47;;;;;;;13.50;6.43;;;18.80;99.90;;;;;;4393455;28;657444;-69
2021/09/03 08:50:35;;;;;;;15.87;6.93;;;18.90;99.90;;;;;;4396915;28;658434;-69
2021/09/03 08:53:23;;;;;;;13.50;6.20;;;18.80;99.90;;;;;;4375111;28;657835;-69
2021/09/03 08:56:12;;;;;;;9.07;5.00;;;19.00;99.90;;;;;;4393142;28;657730;-69
2021/09/03 08:59:00;;;;;;;17.63;6.33;;;19.20;99.90;;;;;;4371378;28;657095;-69
2021/09/03 09:01:59;;;;;;;15.23;6.60;;;19.50;99.90;;;;;;4374302;28;657505;-69
2021/09/03 09:04:48;;;;;;;10.70;5.77;;;19.80;99.90;;;;;;4370353;28;657826;-69
2021/09/03 09:07:35;;;;;;;11.67;6.50;;;19.90;99.90;;;;;;4370514;28;658706;-69
2021/09/03 09:10:27;;;;;;;10.93;5.70;;;19.90;49.50;;;;;;4373143;28;657961;-69
2021/09/03 09:13:17;;;;;;;10.73;4.93;;;20.10;77.20;;;;;;4374722;28;658831;-69
2021/09/03 09:16:08;;;;;;;8.80;5.00;;;20.30;1.00;;;;;;4370596;28;658630;-69
2021/09/03 09:18:56;;;;;;;9.67;5.10;;;20.20;1.00;;;;;;4372813;28;655839;-69
2021/09/03 09:21:45;;;;;;;12.67;5.87;;;20.10;1.00;;;;;;4376662;28;655522;-69
2021/09/03 09:24:32;;;;;;;9.60;5.43;;;20.20;1.00;;;;;;4377770;28;656520;-69
2021/09/03 09:27:27;;;;;;;12.73;5.37;;;20.40;1.00;;;;;;4399109;28;656511;-69
2021/09/03 09:30:24;;;;;;;9.90;5.17;;;20.40;1.00;;;;;;4349467;28;657450;-69
2021/09/03 09:33:17;;;;;;;10.93;5.70;;;20.30;1.00;;;;;;4367066;28;655854;-68
2021/09/03 09:36:05;;;;;;;12.27;6.03;;;20.90;1.00;;;;;;4348891;28;656757;-69
2021/09/03 09:38:52;;;;;;;13.07;6.43;;;21.00;1.00;;;;;;4377924;28;656674;-69
2021/09/03 09:41:40;;;;;;;10.37;5.43;;;21.10;1.00;;;;;;4393415;28;657261;-69
2021/09/03 09:44:31;;;;;;;11.67;5.43;;;21.10;1.00;;;;;;4375277;28;656662;-69
2021/09/03 09:47:21;;;;;;;10.07;5.47;;;21.40;99.90;;;;;;4375561;28;656465;-69
2021/09/03 09:50:24;;;;;;;14.23;5.93;;;21.40;99.90;;;;;;4374802;28;657909;-69
2021/09/03 09:53:12;;;;;;;10.17;5.63;;;21.50;99.90;;;;;;4373446;28;657770;-69
2021/09/03 09:56:00;;;;;;;11.47;6.27;;;21.50;99.90;;;;;;4373349;28;657897;-69
2021/09/03 09:58:48;;;;;;;10.93;6.60;;;21.30;99.90;;;;;;4376745;28;657991;-69
2021/09/03 10:01:36;;;;;;;11.77;6.00;;;21.10;99.90;;;;;;4395503;28;658399;-69
2021/09/03 10:04:25;;;;;;;10.90;6.00;;;20.90;99.90;;;;;;4377098;28;657652;-69
2021/09/03 10:07:13;;;;;;;10.40;5.70;;;20.40;99.90;;;;;;4376634;28;657826;-69
2021/09/03 10:10:01;;;;;;;10.80;5.83;;;20.30;99.90;;;;;;4395387;28;658885;-69
2021/09/03 10:12:48;;;;;;;9.13;5.37;;;20.60;99.90;;;;;;4373679;28;657822;-69
2021/09/03 10:15:36;;;;;;;9.23;5.50;;;20.40;99.90;;;;;;4396934;28;657291;-69
2021/09/03 10:18:23;;;;;;;10.17;5.80;;;21.00;99.90;;;;;;4377714;28;656424;-69
2021/09/03 10:21:12;;;;;;;8.73;4.73;;;21.40;99.90;;;;;;4395246;28;657867;-69
2021/09/03 10:24:08;;;;;;;10.67;5.70;;;21.50;99.90;;;;;;4374008;28;658098;-68
2021/09/03 10:26:57;;;;;;;8.47;5.20;;;21.50;99.90;;;;;;4372717;28;657342;-68
2021/09/03 10:29:46;;;;;;;10.57;5.50;;;21.00;1.00;;;;;;4373458;28;657334;-68
2021/09/03 10:32:36;;;;;;;9.40;5.23;;;20.70;42.30;;;;;;4378341;28;656884;-68
2021/09/03 10:35:24;;;;;;;11.73;5.37;;;20.50;76.10;;;;;;4378346;28;658157;-69
2021/09/03 10:38:29;;;;;;;8.73;5.10;;;20.50;99.90;;;;;;4395297;28;657402;-69
2021/09/03 10:41:48;;;;;;;9.33;5.50;;;21.20;99.90;;;;;;4373520;28;656851;-69
2021/09/03 10:44:56;;;;;;;8.47;5.20;;;21.90;99.90;;;;;;4448796;28;657545;-69
2021/09/03 10:47:45;;;;;;;11.27;5.10;;;22.00;1.00;;;;;;4351166;28;658205;-69
2021/09/03 10:50:34;;;;;;;12.67;5.13;;;22.00;1.00;;;;;;4377517;28;656907;-68
2021/09/03 10:53:37;;;;;;;9.07;4.67;;;21.50;1.00;;;;;;4396678;28;656539;-68
2021/09/03 10:56:27;;;;;;;10.97;5.00;;;21.00;1.00;;;;;;4352309;28;656910;-68
2021/09/03 10:59:14;;;;;;;8.93;4.97;;;20.80;1.00;;;;;;4378107;28;657713;-68
2021/09/03 11:02:02;;;;;;;9.00;5.03;;;20.90;1.00;;;;;;4386841;28;655892;-68
2021/09/03 11:04:50;;;;;;;10.50;5.10;;;20.80;4.10;;;;;;4401421;28;656329;-68
2021/09/03 11:07:42;;;;;;;10.50;5.13;;;20.80;1.00;;;;;;4377308;28;656766;-68
2021/09/03 11:10:31;;;;;;;8.50;4.93;;;21.40;1.00;;;;;;4376635;28;657676;-69
2021/09/03 11:13:19;;;;;;;10.50;5.43;;;22.00;1.00;;;;;;4374498;28;655800;-68
2021/09/03 11:16:06;;;;;;;8.02;4.93;;;21.40;1.00;;;;;;4392539;28;657170;-68
2021/09/03 11:19:01;;;;;;;9.50;4.93;;;20.80;1.00;;;;;;4378961;28;655201;-68
2021/09/03 11:21:50;;;;;;;8.27;4.27;;;21.00;1.00;;;;;;4378301;28;655283;-68
2021/09/03 11:24:39;;;;;;;9.50;4.97;;;21.60;1.00;;;;;;4380525;28;655461;-68
2021/09/03 11:27:29;;;;;;;9.50;4.90;;;21.80;1.00;;;;;;4395614;28;655161;-68
2021/09/03 11:30:18;;;;;;;8.43;4.67;;;22.00;99.90;;;;;;4387358;28;655278;-68
2021/09/03 11:33:05;;;;;;;6.10;4.13;;;22.40;1.00;;;;;;4400866;28;656747;-67
2021/09/03 11:36:02;;;;;;;8.80;4.60;;;22.00;99.90;;;;;;4378552;28;655213;-68
2021/09/03 11:38:54;;;;;;;7.43;4.47;;;22.20;99.90;;;;;;4350372;28;657246;-68
2021/09/03 11:41:48;;;;;;;8.33;4.40;;;22.60;99.90;;;;;;4373021;28;656607;-68
2021/09/03 11:44:48;;;;;;;11.00;4.60;;;22.70;99.90;;;;;;4372934;28;656778;-68
2021/09/03 11:47:36;;;;;;;7.67;5.17;;;22.00;1.00;;;;;;4371953;28;658013;-68
2021/09/03 11:50:28;;;;;;;8.03;4.57;;;21.80;1.00;;;;;;4373762;28;656430;-68
2021/09/03 11:53:24;;;;;;;8.33;4.73;;;22.20;10.00;;;;;;4373985;28;656050;-68
2021/09/03 11:56:13;;;;;;;7.20;4.57;;;22.40;1.00;;;;;;4394569;28;656313;-68
2021/09/03 11:59:06;;;;;;;10.57;4.30;;;22.50;1.00;;;;;;4396911;28;655506;-68
2021/09/03 12:02:18;;;;;;;9.83;4.43;;;22.60;99.90;;;;;;4372415;28;657386;-68
2021/09/03 12:05:09;;;;;;;9.07;4.10;;;22.80;47.90;;;;;;4375294;28;656642;-68
2021/09/03 12:08:20;;;;;;;5.93;3.93;;;23.00;1.00;;;;;;4372380;28;656509;-68
2021/09/03 12:11:19;;;;;;;7.30;4.33;;;23.00;1.00;;;;;;4350999;28;655862;-68
2021/09/03 12:14:13;;;;;;;6.27;3.87;;;23.00;99.90;;;;;;4367367;28;655755;-68
2021/09/03 12:17:05;;;;;;;9.17;4.80;;;22.90;99.90;;;;;;4372242;28;656716;-68
2021/09/03 12:19:58;;;;;;;8.80;4.80;;;23.20;24.20;;;;;;4358704;28;656930;-68
2021/09/03 12:22:53;;;;;;;5.23;4.03;;;23.80;1.00;;;;;;4372180;28;657985;-68
2021/09/03 12:25:47;;;;;;;10.20;4.83;;;23.40;1.00;;;;;;4373246;28;655546;-68
2021/09/03 12:28:36;;;;;;;6.70;4.13;;;23.50;1.00;;;;;;4349637;28;656888;-68
2021/09/03 12:31:29;;;;;;;7.63;4.30;;;23.80;99.90;;;;;;4373650;28;656395;-68
2021/09/03 12:34:22;;;;;;;6.33;4.13;;;23.70;99.90;;;;;;4372465;28;657325;-68
2021/09/03 12:37:23;;;;;;;7.00;4.07;;;23.70;99.90;;;;;;4376202;28;657039;-68
2021/09/03 12:40:17;;;;;;;11.00;4.13;;;23.30;99.90;;;;;;4372776;28;656896;-68
2021/09/03 12:43:15;;;;;;;6.43;4.43;;;23.40;99.90;;;;;;4347884;28;657820;-68
2021/09/03 12:46:10;;;;;;;7.80;4.73;;;23.50;99.90;;;;;;4349417;28;656646;-68
2021/09/03 12:49:17;;;;;;;9.05;4.78;;;24.20;1.00;;;;;;4352954;28;657249;-68
2021/09/03 12:52:06;;;;;;;7.28;4.32;;;23.90;1.00;;;;;;4372805;28;656053;-68
2021/09/03 12:54:55;;;;;;;6.30;4.38;;;23.60;16.40;;;;;;4373892;28;655648;-68
2021/09/03 12:57:42;;;;;;;5.85;3.58;;;23.60;1.00;;;;;;4376025;28;656810;-68
2021/09/03 13:00:30;;;;;;;8.20;4.22;;;23.70;1.00;;;;;;4396928;28;656758;-68
2021/09/03 13:03:18;;;;;;;7.60;4.40;;;23.90;1.00;;;;;;4376605;28;655242;-68
2021/09/03 13:06:05;;;;;;;8.05;3.80;;;24.20;67.00;;;;;;4395914;28;656920;-68
2021/09/03 13:08:53;;;;;;;8.10;3.92;;;24.70;1.00;;;;;;4374373;28;656408;-68
2021/09/03 13:11:42;;;;;;;5.88;4.13;;;24.80;99.90;;;;;;4395708;28;656994;-68
2021/09/03 13:14:31;;;;;;;6.68;4.28;;;24.80;99.90;;;;;;4374955;28;657517;-68
2021/09/03 13:17:19;;;;;;;7.72;4.35;;;24.90;99.90;;;;;;4374990;28;656397;-68
2021/09/03 13:20:07;;;;;;;6.38;3.70;;;24.60;40.00;;;;;;4394160;28;656942;-67
2021/09/03 13:22:54;;;;;;;7.72;4.03;;;24.30;2.90;;;;;;4375939;28;657602;-67
2021/09/03 13:25:42;;;;;;;8.75;3.95;;;24.50;99.90;;;;;;4389267;28;655706;-68
2021/09/03 13:28:31;;;;;;;7.82;4.20;;;24.30;13.70;;;;;;4394082;28;658209;-68
2021/09/03 13:31:20;;;;;;;6.07;4.10;;;24.60;99.90;;;;;;4375484;28;656763;-68
2021/09/03 13:34:08;;;;;;;6.07;3.97;;;24.80;1.00;;;;;;4375671;28;657114;-68
2021/09/03 13:36:56;;;;;;;7.63;4.53;;;25.00;83.60;;;;;;4395975;28;655395;-67
2021/09/03 13:39:46;;;;;;;5.85;4.20;;;24.80;1.00;;;;;;4376034;28;656479;-68
2021/09/03 13:42:33;;;;;;;4.80;3.50;;;24.50;1.00;;;;;;4376826;28;655774;-68
2021/09/03 13:45:23;;;;;;;6.50;3.90;;;24.90;60.30;;;;;;4395507;28;655497;-67
2021/09/03 13:48:10;;;;;;;4.80;3.80;;;25.00;1.00;;;;;;4371076;28;657638;-68
2021/09/03 13:50:58;;;;;;;5.97;3.90;;;24.70;1.00;;;;;;4376924;28;655335;-67
2021/09/03 13:53:45;;;;;;;7.78;4.38;;;24.10;1.00;;;;;;4395158;28;656761;-67
2021/09/03 13:56:33;;;;;;;7.53;4.53;;;23.80;1.00;;;;;;4377164;28;655327;-67
2021/09/03 13:59:21;;;;;;;9.27;4.20;;;23.40;1.00;;;;;;4395275;28;655870;-67
2021/09/03 14:02:10;;;;;;;8.10;4.20;;;22.90;33.20;;;;;;4377075;28;655599;-67
2021/09/03 14:04:57;;;;;;;9.07;4.67;;;22.60;91.40;;;;;;4374614;28;657065;-67
2021/09/03 14:07:53;;;;;;;7.10;4.03;;;22.30;99.90;;;;;;4397522;28;657013;-67
2021/09/03 14:10:49;;;;;;;7.47;3.87;;;22.20;99.90;;;;;;4370946;28;657210;-67
2021/09/03 14:13:46;;;;;;;6.07;4.23;;;22.50;1.00;;;;;;4368102;28;656567;-67
2021/09/03 14:16:40;;;;;;;7.87;4.17;;;22.90;1.00;;;;;;4372373;28;656190;-67